createdAt,value
2024-01-22T00:00:21.838Z,100641.45
2024-01-22T00:02:52.366Z,100630.64
2024-01-22T00:05:22.980Z,100611.37
2024-01-22T00:07:53.422Z,100607.81
2024-01-22T00:10:23.852Z,100591.89
2024-01-22T00:12:54.789Z,100595.23
2024-01-22T00:15:25.304Z,100593.02
2024-01-22T00:17:55.838Z,100598.16
2024-01-22T00:20:26.383Z,100587.33
2024-01-22T00:22:57.148Z,100589.12
2024-01-22T00:25:27.714Z,100585.26
2024-01-22T00:27:58.455Z,100578.42
2024-01-22T00:30:28.988Z,100560.17
2024-01-22T00:33:00.340Z,100545.25
2024-01-22T00:35:30.984Z,100552.73
2024-01-22T00:38:01.424Z,100545.54
2024-01-22T00:40:31.883Z,100545.27
2024-01-22T00:43:02.288Z,100546.16
2024-01-22T00:45:32.793Z,100531.06
2024-01-22T00:48:03.478Z,100524.38
2024-01-22T00:50:34.150Z,100515.54
2024-01-22T00:53:04.841Z,100526.34
2024-01-22T00:55:35.446Z,100507.92
2024-01-22T00:58:06.114Z,100494.41
2024-01-22T01:00:36.497Z,100496.55
2024-01-22T01:03:07.849Z,100497.26
2024-01-22T01:05:38.690Z,100498.55
2024-01-22T01:08:10.120Z,100491.95
2024-01-22T01:10:40.532Z,100482.16
2024-01-22T01:13:10.939Z,100449.94
2024-01-22T01:15:41.321Z,100468.89
2024-01-22T01:18:11.848Z,100470.45
2024-01-22T01:20:42.413Z,100454.04
2024-01-22T01:23:13.162Z,100443.77
2024-01-22T01:25:43.704Z,100442.48
2024-01-22T01:28:14.169Z,100440.06
2024-01-22T01:30:44.705Z,100431.73
2024-01-22T01:33:15.293Z,100416.59
2024-01-22T01:35:47.233Z,100397.77
2024-01-22T01:38:17.673Z,100355.41
2024-01-22T01:40:48.538Z,100373.45
2024-01-22T01:43:21.191Z,100382.02
2024-01-22T01:45:51.552Z,100371.23
2024-01-22T01:48:22.463Z,100378.79
2024-01-22T01:50:53.133Z,100363.39
2024-01-22T01:53:24.227Z,100352.98
2024-01-22T01:55:55.952Z,100334.80
2024-01-22T01:58:26.517Z,100322.83
2024-01-22T02:00:59.350Z,100304.00
2024-01-22T02:03:29.840Z,100295.64
2024-01-22T02:06:00.712Z,100290.09
2024-01-22T02:08:31.143Z,100279.88
2024-01-22T02:11:01.556Z,100264.85
2024-01-22T02:13:32.311Z,100253.30
2024-01-22T02:16:02.739Z,100241.70
2024-01-22T02:18:33.303Z,100252.39
2024-01-22T02:21:03.861Z,100257.86
2024-01-22T02:23:34.343Z,100268.98
2024-01-22T02:26:04.959Z,100266.67
2024-01-22T02:28:35.381Z,100271.96
2024-01-22T02:31:08.284Z,100251.61
2024-01-22T02:33:38.926Z,100227.59
2024-01-22T02:36:10.602Z,100246.67
2024-01-22T02:38:41.047Z,100240.39
2024-01-22T02:41:11.495Z,100247.38
2024-01-22T02:43:41.932Z,100213.30
2024-01-22T02:46:12.412Z,100168.29
2024-01-22T02:48:43.202Z,100151.48
2024-01-22T02:51:13.878Z,100153.43
2024-01-22T02:53:44.501Z,100164.56
2024-01-22T02:56:20.672Z,100160.39
2024-01-22T02:58:51.151Z,100156.86
2024-01-22T03:01:21.781Z,100147.48
2024-01-22T03:03:52.444Z,100146.31
2024-01-22T03:06:23.085Z,100132.35
2024-01-22T03:08:53.665Z,100140.32
2024-01-22T03:11:24.159Z,100141.14
2024-01-22T03:13:54.602Z,100124.67
2024-01-22T03:16:25.007Z,100117.03
2024-01-22T03:18:55.543Z,100111.08
2024-01-22T03:21:26.026Z,100094.46
2024-01-22T03:23:56.444Z,100087.25
2024-01-22T03:26:27.001Z,100088.09
2024-01-22T03:28:58.270Z,100067.08
2024-01-22T03:31:30.629Z,100073.45
2024-01-22T03:34:01.295Z,100062.90
2024-01-22T03:36:32.464Z,100063.77
2024-01-22T03:39:03.041Z,100060.11
2024-01-22T03:41:33.705Z,100054.76
2024-01-22T03:44:07.323Z,100049.41
2024-01-22T03:46:37.706Z,100048.05
2024-01-22T03:49:08.398Z,100038.06
2024-01-22T03:51:38.954Z,100031.64
2024-01-22T03:54:09.648Z,100033.43
2024-01-22T03:56:40.324Z,100036.54
2024-01-22T03:59:11.418Z,100029.35
2024-01-22T04:01:41.812Z,100025.36
2024-01-22T04:04:12.826Z,100027.25
2024-01-22T04:06:43.440Z,100025.45
2024-01-22T04:09:14.175Z,100020.55
2024-01-22T04:11:44.758Z,100033.73
2024-01-22T04:14:17.688Z,100036.75
2024-01-22T04:16:48.707Z,100047.04
2024-01-22T04:19:19.244Z,100040.70
2024-01-22T04:21:50.311Z,100034.92
2024-01-22T04:24:20.774Z,100031.02
2024-01-22T04:26:51.238Z,100046.88
2024-01-22T04:29:21.771Z,100049.09
2024-01-22T04:31:52.233Z,100044.98
2024-01-22T04:34:22.876Z,100043.56
2024-01-22T04:36:53.614Z,100019.98
2024-01-22T04:39:24.896Z,100014.45
2024-01-22T04:41:55.485Z,99997.05
2024-01-22T04:44:28.685Z,99994.45
2024-01-22T04:46:59.671Z,99996.80
2024-01-22T04:49:32.476Z,99997.17
2024-01-22T04:52:03.016Z,99996.46
2024-01-22T04:54:33.436Z,99982.59
2024-01-22T04:57:04.027Z,99973.19
2024-01-22T04:59:34.603Z,99980.81
2024-01-22T05:02:05.241Z,99981.73
2024-01-22T05:04:35.850Z,99981.16
2024-01-22T05:07:06.682Z,99978.67
2024-01-22T05:09:37.100Z,99967.72
2024-01-22T05:12:08.582Z,99961.45
2024-01-22T05:14:41.741Z,99954.52
2024-01-22T05:17:12.755Z,99950.30
2024-01-22T05:19:43.284Z,99945.66
2024-01-22T05:22:13.877Z,99935.37
2024-01-22T05:24:44.308Z,99933.15
2024-01-22T05:27:14.895Z,99929.94
2024-01-22T05:29:45.871Z,99917.64
2024-01-22T05:32:17.065Z,99916.41
2024-01-22T05:34:47.622Z,99905.36
2024-01-22T05:37:18.148Z,99900.98
2024-01-22T05:39:48.562Z,99896.18
2024-01-22T05:42:19.035Z,99884.64
2024-01-22T05:44:49.627Z,99886.73
2024-01-22T05:47:20.487Z,99878.66
2024-01-22T05:49:51.132Z,99883.52
2024-01-22T05:52:21.965Z,99879.34
2024-01-22T05:54:52.446Z,99877.33
2024-01-22T05:57:27.735Z,99869.80
2024-01-22T06:00:00.488Z,99878.83
2024-01-22T06:02:32.024Z,99873.35
2024-01-22T06:05:02.498Z,99869.17
2024-01-22T06:07:33.134Z,99867.54
2024-01-22T06:10:08.509Z,99857.20
2024-01-22T06:12:39.672Z,99851.34
2024-01-22T06:15:11.484Z,99842.26
2024-01-22T06:17:41.971Z,99846.64
2024-01-22T06:20:14.507Z,99842.48
2024-01-22T06:22:44.951Z,99836.77
2024-01-22T06:25:15.694Z,99832.05
2024-01-22T06:27:46.679Z,99829.57
2024-01-22T06:30:18.572Z,99829.32
2024-01-22T06:32:49.222Z,99821.53
2024-01-22T06:35:19.838Z,99812.63
2024-01-22T06:37:50.265Z,99815.85
2024-01-22T06:40:20.757Z,99808.23
2024-01-22T06:42:51.341Z,99804.80
2024-01-22T06:45:22.048Z,99803.96
2024-01-22T06:47:53.315Z,99800.61
2024-01-22T06:50:24.702Z,99806.80
2024-01-22T06:52:55.280Z,99791.00
2024-01-22T06:55:26.446Z,99806.17
2024-01-22T06:57:56.903Z,99810.79
2024-01-22T07:00:28.089Z,99806.85
2024-01-22T07:03:00.023Z,99803.37
2024-01-22T07:05:30.895Z,99807.93
2024-01-22T07:08:01.562Z,99806.67
2024-01-22T07:10:33.185Z,99813.04
2024-01-22T07:13:04.626Z,99817.36
2024-01-22T07:15:35.100Z,99814.63
2024-01-22T07:18:06.335Z,99801.83
2024-01-22T07:20:37.318Z,99810.83
2024-01-22T07:23:08.177Z,99807.73
2024-01-22T07:25:38.636Z,99814.90
2024-01-22T07:28:09.632Z,99806.27
2024-01-22T07:30:40.102Z,99811.17
2024-01-22T07:33:10.691Z,99813.56
2024-01-22T07:35:41.288Z,99821.02
2024-01-22T07:38:11.819Z,99837.58
2024-01-22T07:40:42.210Z,99838.04
2024-01-22T07:43:12.662Z,99835.41
2024-01-22T07:45:43.134Z,99832.65
2024-01-22T07:48:13.860Z,99834.25
2024-01-22T07:50:44.404Z,99833.50
2024-01-22T07:53:14.893Z,99826.29
2024-01-22T07:55:45.655Z,99832.74
2024-01-22T07:58:17.998Z,99835.00
2024-01-22T08:00:48.622Z,99834.50
2024-01-22T08:03:19.280Z,99829.86
2024-01-22T08:05:49.802Z,99826.30
2024-01-22T08:08:20.893Z,99831.45
2024-01-22T08:10:51.551Z,99836.81
2024-01-22T08:13:22.734Z,99837.90
2024-01-22T08:15:54.142Z,99835.64
2024-01-22T08:18:24.817Z,99837.65
2024-01-22T08:20:55.413Z,99838.96
2024-01-22T08:23:26.563Z,99832.80
2024-01-22T08:25:57.233Z,99830.55
2024-01-22T08:28:27.871Z,99825.23
2024-01-22T08:30:58.264Z,99825.35
2024-01-22T08:33:28.821Z,99824.80
2024-01-22T08:35:59.360Z,99829.16
2024-01-22T08:38:29.832Z,99835.27
2024-01-22T08:41:00.241Z,99832.80
2024-01-22T08:43:30.655Z,99833.67
2024-01-22T08:46:01.191Z,99824.46
2024-01-22T08:48:31.947Z,99833.34
2024-01-22T08:51:02.572Z,99823.46
2024-01-22T08:53:33.004Z,99819.15
2024-01-22T08:56:03.432Z,99821.70
2024-01-22T08:58:33.859Z,99830.75
2024-01-22T09:01:08.433Z,99838.03
2024-01-22T09:03:39.888Z,99831.11
2024-01-22T09:06:11.124Z,99831.48
2024-01-22T09:08:44.606Z,99844.40
2024-01-22T09:11:15.494Z,99837.95
2024-01-22T09:13:47.160Z,99843.52
2024-01-22T09:16:18.434Z,99838.02
2024-01-22T09:18:49.820Z,99842.59
2024-01-22T09:21:20.419Z,99824.23
2024-01-22T09:23:50.891Z,99825.70
2024-01-22T09:26:21.312Z,99829.60
2024-01-22T09:28:51.935Z,99830.69
2024-01-22T09:31:22.414Z,99824.98
2024-01-22T09:33:55.258Z,99824.33
2024-01-22T09:36:25.945Z,99828.90
2024-01-22T09:38:56.474Z,99832.71
2024-01-22T09:41:29.106Z,99835.23
2024-01-22T09:43:59.766Z,99834.27
2024-01-22T09:46:30.865Z,99825.47
2024-01-22T09:49:01.544Z,99825.20
2024-01-22T09:51:36.438Z,99824.95
2024-01-22T09:54:11.393Z,99826.80
2024-01-22T09:56:42.697Z,99806.63
2024-01-22T09:59:20.843Z,99808.65
2024-01-22T10:01:52.629Z,99807.36
2024-01-22T10:04:24.891Z,99798.42
2024-01-22T10:06:56.242Z,99801.13
2024-01-22T10:09:26.865Z,99799.38
2024-01-22T10:11:57.535Z,99792.75
2024-01-22T10:14:36.156Z,99791.07
2024-01-22T10:17:19.920Z,99789.71
2024-01-22T10:19:53.047Z,99790.17
2024-01-22T10:22:25.260Z,99789.79
2024-01-22T10:25:03.915Z,99793.56
2024-01-22T10:27:34.610Z,99783.30
2024-01-22T10:30:15.243Z,99784.05
2024-01-22T10:32:45.883Z,99784.23
2024-01-22T10:35:26.554Z,99784.62
2024-01-22T10:38:10.530Z,99786.64
2024-01-22T10:40:42.341Z,99783.06
2024-01-22T10:43:27.742Z,99777.85
2024-01-22T10:46:00.550Z,99771.85
2024-01-22T10:48:38.948Z,99764.52
2024-01-22T10:51:15.637Z,99766.64
2024-01-22T10:53:48.255Z,99764.66
2024-01-22T10:56:24.718Z,99756.08
2024-01-22T10:59:01.638Z,99757.07
2024-01-22T11:01:34.391Z,99752.55
2024-01-22T11:04:06.775Z,99761.19
2024-01-22T11:06:42.296Z,99756.39
2024-01-22T11:09:15.876Z,99760.79
2024-01-22T11:11:49.237Z,99761.13
2024-01-22T11:14:20.066Z,99755.84
2024-01-22T11:16:50.771Z,99752.42
2024-01-22T11:19:24.827Z,99748.24
2024-01-22T11:21:57.432Z,99739.40
2024-01-22T11:24:29.148Z,99738.80
2024-01-22T11:27:09.948Z,99733.89
2024-01-22T11:29:40.833Z,99737.32
2024-01-22T11:32:30.544Z,99723.02
2024-01-22T11:35:08.628Z,99726.39
2024-01-22T11:37:45.782Z,99725.94
2024-01-22T11:40:17.436Z,99719.59
2024-01-22T11:42:48.152Z,99718.27
2024-01-22T11:45:21.317Z,99706.58
2024-01-22T11:47:55.985Z,99714.16
2024-01-22T11:50:26.576Z,99717.48
2024-01-22T11:53:02.579Z,99709.40
2024-01-22T11:55:33.086Z,99708.30
2024-01-22T11:58:04.136Z,99718.97
2024-01-22T12:00:34.897Z,99710.75
2024-01-22T12:03:05.650Z,99716.45
2024-01-22T12:05:36.087Z,99706.84
2024-01-22T12:08:13.557Z,99702.80
2024-01-22T12:10:44.059Z,99703.91
2024-01-22T12:13:17.375Z,99702.66
2024-01-22T12:15:48.219Z,99703.69
2024-01-22T12:18:25.888Z,99701.87
2024-01-22T12:20:56.825Z,99696.16
2024-01-22T12:23:35.263Z,99695.52
2024-01-22T12:26:12.894Z,99694.35
2024-01-22T12:28:45.144Z,99692.77
2024-01-22T12:31:16.561Z,99693.84
2024-01-22T12:33:47.154Z,99690.67
2024-01-22T12:36:19.253Z,99689.86
2024-01-22T12:38:55.006Z,99689.84
2024-01-22T12:41:26.966Z,99684.71
2024-01-22T12:43:59.851Z,99682.69
2024-01-22T12:46:32.314Z,99680.38
2024-01-22T12:49:05.047Z,99671.90
2024-01-22T12:51:35.944Z,99671.25
2024-01-22T12:54:08.139Z,99670.73
2024-01-22T12:56:38.649Z,99667.16
2024-01-22T12:59:09.113Z,99666.38
2024-01-22T13:01:40.210Z,99661.52
2024-01-22T13:04:10.748Z,99666.36
2024-01-22T13:06:41.518Z,99667.86
2024-01-22T13:09:14.105Z,99667.58
2024-01-22T13:11:47.023Z,99663.54
2024-01-22T13:14:18.032Z,99668.52
2024-01-22T13:16:48.816Z,99676.79
2024-01-22T13:19:19.401Z,99666.45
2024-01-22T13:21:50.308Z,99680.24
2024-01-22T13:24:21.475Z,99680.24
2024-01-22T13:26:51.931Z,99675.63
2024-01-22T13:29:22.645Z,99686.47
2024-01-22T13:31:53.647Z,99690.83
2024-01-22T13:34:25.252Z,99695.90
2024-01-22T13:36:56.108Z,99711.63
2024-01-22T13:39:26.677Z,99724.90
2024-01-22T13:41:57.930Z,99756.15
2024-01-22T13:44:28.405Z,99793.50
2024-01-22T13:47:00.023Z,99810.59
2024-01-22T13:49:30.499Z,99812.87
2024-01-22T13:52:06.908Z,99817.60
2024-01-22T13:54:38.608Z,99816.73
2024-01-22T13:57:09.278Z,99819.41
2024-01-22T13:59:40.553Z,99796.21
2024-01-22T14:02:11.763Z,99785.60
2024-01-22T14:04:44.276Z,99784.23
2024-01-22T14:07:14.892Z,99789.70
2024-01-22T14:09:45.839Z,99799.69
2024-01-22T14:12:20.062Z,99816.48
2024-01-22T14:14:51.048Z,99833.08
2024-01-22T14:17:21.704Z,99846.48
2024-01-22T14:19:52.630Z,99855.80
2024-01-22T14:22:25.966Z,99866.64
2024-01-22T14:24:57.281Z,99877.05
2024-01-22T14:27:27.835Z,99887.11
2024-01-22T14:29:58.393Z,99851.59
2024-01-22T14:32:32.093Z,99840.80
2024-01-22T14:35:03.394Z,99837.89
2024-01-22T14:37:34.366Z,99840.70
2024-01-22T14:40:07.179Z,99850.89
2024-01-22T14:42:37.666Z,99868.25
2024-01-22T14:45:09.954Z,99871.70
2024-01-22T14:47:40.470Z,99873.38
2024-01-22T14:50:13.045Z,99882.26
2024-01-22T14:52:43.533Z,99893.94
2024-01-22T14:55:14.072Z,99895.48
2024-01-22T14:57:44.531Z,99897.23
2024-01-22T15:00:17.019Z,99903.89
2024-01-22T15:02:47.558Z,99907.52
2024-01-22T15:05:19.500Z,99902.91
2024-01-22T15:07:50.679Z,99905.83
2024-01-22T15:10:21.994Z,99911.65
2024-01-22T15:12:52.543Z,99909.18
2024-01-22T15:15:23.002Z,99901.07
2024-01-22T15:17:54.504Z,99901.61
2024-01-22T15:20:25.450Z,99898.60
2024-01-22T15:22:56.769Z,99901.31
2024-01-22T15:25:27.381Z,99910.80
2024-01-22T15:27:58.680Z,99913.78
2024-01-22T15:30:29.510Z,99917.71
2024-01-22T15:33:00.297Z,99926.88
2024-01-22T15:35:32.848Z,99929.29
2024-01-22T15:38:03.972Z,99936.77
2024-01-22T15:40:34.807Z,99943.27
2024-01-22T15:43:05.533Z,99945.86
2024-01-22T15:45:37.317Z,99947.70
2024-01-22T15:48:10.329Z,99944.25
2024-01-22T15:50:40.990Z,99943.68
2024-01-22T15:53:13.741Z,99934.41
2024-01-22T15:55:46.902Z,99937.02
2024-01-22T15:58:18.066Z,99939.02
2024-01-22T16:00:48.511Z,99950.66
2024-01-22T16:03:19.132Z,99954.59
2024-01-22T16:05:49.954Z,99959.00
2024-01-22T16:08:21.873Z,99964.70
2024-01-22T16:10:52.545Z,99962.00
2024-01-22T16:13:23.374Z,99967.16
2024-01-22T16:15:54.458Z,99964.50
2024-01-22T16:18:25.258Z,99969.55
2024-01-22T16:20:56.262Z,99973.17
2024-01-22T16:23:27.066Z,99977.05
2024-01-22T16:25:57.666Z,99981.33
2024-01-22T16:28:31.208Z,99990.02
2024-01-22T16:31:01.652Z,99996.84
2024-01-22T16:33:35.429Z,100005.96
2024-01-22T16:36:08.106Z,100005.98
2024-01-22T16:38:40.805Z,100015.55
2024-01-22T16:41:12.688Z,100026.52
2024-01-22T16:43:43.044Z,100027.66
2024-01-22T16:46:13.460Z,100032.27
2024-01-22T16:48:43.967Z,100058.06
2024-01-22T16:51:14.533Z,100066.42
2024-01-22T16:53:45.023Z,100056.88
2024-01-22T16:56:15.572Z,100075.73
2024-01-22T16:58:45.990Z,100075.06
2024-01-22T17:01:17.837Z,100074.79
2024-01-22T17:03:48.382Z,100076.55
2024-01-22T17:06:22.123Z,100078.58
2024-01-22T17:08:53.083Z,100084.34
2024-01-22T17:11:24.298Z,100104.11
2024-01-22T17:13:56.711Z,100080.64
2024-01-22T17:16:27.560Z,100084.48
2024-01-22T17:18:58.113Z,100079.52
2024-01-22T17:21:29.386Z,100088.41
2024-01-22T17:24:00.004Z,100095.23
2024-01-22T17:26:30.579Z,100092.29
2024-01-22T17:29:01.764Z,100090.55
2024-01-22T17:31:32.433Z,100090.99
2024-01-22T17:34:06.112Z,100099.33
2024-01-22T17:36:37.738Z,100112.63
2024-01-22T17:39:09.420Z,100119.99
2024-01-22T17:41:40.370Z,100123.94
2024-01-22T17:44:11.528Z,100125.58
2024-01-22T17:46:44.802Z,100131.20
2024-01-22T17:49:15.493Z,100130.55
2024-01-22T17:51:46.157Z,100124.95
2024-01-22T17:54:16.945Z,100137.49
2024-01-22T17:56:47.517Z,100135.63
2024-01-22T17:59:17.962Z,100135.22
2024-01-22T18:01:48.913Z,100136.68
2024-01-22T18:04:19.592Z,100144.71
2024-01-22T18:06:50.199Z,100150.29
2024-01-22T18:09:20.911Z,100150.61
2024-01-22T18:11:52.299Z,100158.83
2024-01-22T18:14:22.798Z,100166.96
2024-01-22T18:16:53.219Z,100169.31
2024-01-22T18:19:24.177Z,100175.39
2024-01-22T18:21:54.741Z,100173.65
2024-01-22T18:24:25.268Z,100174.42
2024-01-22T18:26:55.806Z,100168.80
2024-01-22T18:29:29.311Z,100168.45
2024-01-22T18:32:00.205Z,100171.96
2024-01-22T18:34:30.793Z,100176.15
2024-01-22T18:37:02.740Z,100182.30
2024-01-22T18:39:33.294Z,100186.17
2024-01-22T18:42:03.948Z,100185.99
2024-01-22T18:44:34.904Z,100183.63
2024-01-22T18:47:05.771Z,100192.19
2024-01-22T18:49:37.751Z,100195.09
2024-01-22T18:52:09.037Z,100196.77
2024-01-22T18:54:39.581Z,100198.84
2024-01-22T18:57:10.833Z,100217.05
2024-01-22T18:59:41.192Z,100222.77
2024-01-22T19:02:14.855Z,100237.57
2024-01-22T19:04:45.421Z,100241.27
2024-01-22T19:07:16.335Z,100235.34
2024-01-22T19:09:48.272Z,100236.56
2024-01-22T19:12:19.087Z,100245.84
2024-01-22T19:14:49.631Z,100249.45
2024-01-22T19:17:20.214Z,100263.27
2024-01-22T19:19:50.845Z,100275.55
2024-01-22T19:22:21.589Z,100278.42
2024-01-22T19:24:52.021Z,100282.62
2024-01-22T19:27:22.733Z,100283.05
2024-01-22T19:29:53.296Z,100282.96
2024-01-22T19:32:23.794Z,100282.33
2024-01-22T19:34:54.289Z,100277.55
2024-01-22T19:37:24.716Z,100277.30
2024-01-22T19:39:55.252Z,100278.89
2024-01-22T19:42:27.996Z,100284.34
2024-01-22T19:44:58.507Z,100287.13
2024-01-22T19:47:29.941Z,100289.73
2024-01-22T19:50:00.835Z,100295.66
2024-01-22T19:52:31.526Z,100300.54
2024-01-22T19:55:02.736Z,100307.59
2024-01-22T19:57:33.437Z,100312.31
2024-01-22T20:00:04.151Z,100316.77
2024-01-22T20:02:34.614Z,100317.72
2024-01-22T20:05:06.342Z,100321.73
2024-01-22T20:07:36.794Z,100323.92
2024-01-22T20:10:09.182Z,100326.92
2024-01-22T20:12:39.608Z,100327.91
2024-01-22T20:15:11.372Z,100334.42
2024-01-22T20:17:41.963Z,100333.41
2024-01-22T20:20:15.504Z,100335.29
2024-01-22T20:22:46.133Z,100337.13
2024-01-22T20:25:17.798Z,100337.52
2024-01-22T20:27:48.288Z,100345.46
2024-01-22T20:30:19.093Z,100343.26
2024-01-22T20:32:49.683Z,100350.77
2024-01-22T20:35:20.273Z,100359.55
2024-01-22T20:37:50.637Z,100352.34
2024-01-22T20:40:21.222Z,100353.21
2024-01-22T20:42:51.584Z,100352.66
2024-01-22T20:45:22.670Z,100356.27
2024-01-22T20:47:54.265Z,100356.73
2024-01-22T20:50:24.788Z,100357.69
2024-01-22T20:52:55.155Z,100366.05
2024-01-22T20:55:28.085Z,100367.88
2024-01-22T20:57:58.733Z,100363.30
2024-01-22T21:00:29.629Z,100358.09
2024-01-22T21:03:00.243Z,100358.40
2024-01-22T21:05:31.000Z,100358.58
2024-01-22T21:08:01.486Z,100361.56
2024-01-22T21:10:33.410Z,100370.86
2024-01-22T21:13:04.114Z,100377.70
2024-01-22T21:15:34.992Z,100379.71
2024-01-22T21:18:08.463Z,100377.88
2024-01-22T21:20:39.674Z,100385.22
2024-01-22T21:23:10.823Z,100392.76
2024-01-22T21:25:41.241Z,100384.73
2024-01-22T21:28:11.661Z,100378.46
2024-01-22T21:30:44.395Z,100385.30
2024-01-22T21:33:18.603Z,100390.72
2024-01-22T21:35:52.948Z,100403.80
2024-01-22T21:38:23.359Z,100413.54
2024-01-22T21:40:53.857Z,100411.90
2024-01-22T21:43:24.235Z,100394.64
2024-01-22T21:45:54.613Z,100392.38
2024-01-22T21:48:25.287Z,100396.05
2024-01-22T21:50:56.084Z,100398.45
2024-01-22T21:53:26.549Z,100396.20
2024-01-22T21:55:57.119Z,100390.43
2024-01-22T21:58:28.353Z,100390.40
2024-01-22T22:00:59.077Z,100391.88
2024-01-22T22:03:30.849Z,100387.34
2024-01-22T22:06:02.139Z,100395.90
2024-01-22T22:08:35.547Z,100392.08
2024-01-22T22:11:08.538Z,100392.45
2024-01-22T22:13:38.948Z,100392.06
2024-01-22T22:16:10.689Z,100388.13
2024-01-22T22:18:43.558Z,100400.30
2024-01-22T22:21:14.624Z,100411.09
2024-01-22T22:23:45.477Z,100419.46
2024-01-22T22:26:16.177Z,100426.05
2024-01-22T22:28:46.531Z,100493.05
2024-01-22T22:31:16.937Z,100499.66
2024-01-22T22:33:47.419Z,100500.30
2024-01-22T22:36:18.657Z,100479.91
2024-01-22T22:38:49.221Z,100478.65
2024-01-22T22:41:19.626Z,100472.48
2024-01-22T22:43:50.031Z,100474.78
2024-01-22T22:46:20.361Z,100464.83
2024-01-22T22:48:51.074Z,100467.56
2024-01-22T22:51:22.214Z,100466.77
2024-01-22T22:53:53.051Z,100479.10
2024-01-22T22:56:23.456Z,100489.55
2024-01-22T22:58:54.351Z,100498.63
2024-01-22T23:01:24.858Z,100487.72
2024-01-22T23:03:57.838Z,100480.91
2024-01-22T23:06:29.817Z,100478.23
2024-01-22T23:09:00.518Z,100472.84
2024-01-22T23:11:31.085Z,100462.02
2024-01-22T23:14:01.804Z,100462.58
2024-01-22T23:16:32.486Z,100472.70
2024-01-22T23:19:03.841Z,100473.35
2024-01-22T23:21:37.044Z,100472.37
2024-01-22T23:24:09.075Z,100478.42
2024-01-22T23:26:39.925Z,100475.65
2024-01-22T23:29:10.327Z,100466.18
2024-01-22T23:31:41.152Z,100463.06
2024-01-22T23:34:12.104Z,100463.61
2024-01-22T23:36:42.671Z,100459.06
2024-01-22T23:39:13.593Z,100460.83
2024-01-22T23:41:44.453Z,100462.60
2024-01-22T23:44:14.916Z,100455.20
2024-01-22T23:46:45.536Z,100452.02
2024-01-22T23:49:16.345Z,100464.20
2024-01-22T23:51:46.985Z,100466.62
2024-01-22T23:54:17.449Z,100467.48
2024-01-22T23:56:47.956Z,100461.95
2024-01-22T23:59:18.443Z,100460.28
